createdAt,value
2022-12-25T03:03:48.103Z,18.50
2022-12-25T03:06:34.572Z,19.40
2022-12-25T03:09:19.264Z,17.30
2022-12-25T03:11:49.140Z,17.70
2022-12-25T03:14:42.395Z,19.40
2022-12-25T03:17:09.467Z,18.70
2022-12-25T03:19:55.249Z,16.90
2022-12-25T03:22:45.502Z,18.00
2022-12-25T03:25:32.418Z,19.20
2022-12-25T03:28:00.447Z,18.80
2022-12-25T03:30:51.408Z,19.10
2022-12-25T03:33:44.724Z,20.50
2022-12-25T03:36:18.250Z,20.20
2022-12-25T03:39:12.211Z,19.90
2022-12-25T03:42:03.760Z,21.40
2022-12-25T03:44:59.785Z,20.50
2022-12-25T03:47:47.879Z,21.20
2022-12-25T03:50:36.773Z,20.20
2022-12-25T03:53:26.170Z,20.30
2022-12-25T03:56:12.177Z,20.10
2022-12-25T03:58:56.793Z,20.00
2022-12-25T04:01:41.476Z,20.20
2022-12-25T04:04:26.708Z,20.10
2022-12-25T04:07:11.537Z,20.90
2022-12-25T04:09:56.201Z,21.60
2022-12-25T04:12:40.718Z,20.30
2022-12-25T04:15:26.192Z,20.00
2022-12-25T04:18:13.399Z,19.80
2022-12-25T04:20:57.960Z,20.00
2022-12-25T04:23:44.681Z,19.80
2022-12-25T04:26:43.832Z,20.90
2022-12-25T04:29:28.389Z,20.90
2022-12-25T04:32:13.088Z,20.30
2022-12-25T04:35:12.357Z,20.70
2022-12-25T04:37:39.536Z,20.70
2022-12-25T04:40:08.086Z,20.30
2022-12-25T04:42:35.063Z,21.20
2022-12-25T04:45:01.996Z,20.60
2022-12-25T04:47:29.205Z,19.30
2022-12-25T04:49:56.185Z,20.30
2022-12-25T04:52:23.111Z,21.90
2022-12-25T04:54:50.652Z,20.40
2022-12-25T04:57:17.853Z,22.00
2022-12-25T04:59:44.778Z,20.30
2022-12-25T05:02:12.236Z,21.20
2022-12-25T05:04:39.258Z,20.90
2022-12-25T05:07:06.516Z,21.00
2022-12-25T05:09:33.560Z,20.20
2022-12-25T05:12:00.510Z,19.90
2022-12-25T05:14:27.599Z,21.60
2022-12-25T05:16:54.564Z,20.60
2022-12-25T05:19:21.470Z,21.00
2022-12-25T05:21:48.486Z,22.60
2022-12-25T05:24:15.661Z,22.30
2022-12-25T05:26:42.659Z,22.10
2022-12-25T05:29:09.585Z,22.40
2022-12-25T05:31:36.637Z,22.50
2022-12-25T05:34:03.707Z,23.40
2022-12-25T05:36:30.732Z,22.20
2022-12-25T05:38:57.902Z,23.20
2022-12-25T05:41:27.879Z,22.80
2022-12-25T05:43:59.457Z,21.30
2022-12-25T05:46:26.611Z,21.70
2022-12-25T05:48:53.849Z,22.20
2022-12-25T05:51:20.926Z,23.50
2022-12-25T05:53:47.899Z,22.30
2022-12-25T05:56:15.343Z,22.00
2022-12-25T05:58:42.722Z,22.30
2022-12-25T06:01:19.456Z,23.30
2022-12-25T06:06:13.974Z,19.60
2022-12-25T06:08:40.928Z,19.40
2022-12-25T06:11:09.226Z,20.10
2022-12-25T06:13:37.482Z,19.90
2022-12-25T06:16:06.892Z,19.70
2022-12-25T06:18:35.657Z,19.90
2022-12-25T06:21:02.578Z,19.10
2022-12-25T06:23:29.781Z,18.80
2022-12-25T06:25:56.983Z,19.30
2022-12-25T06:28:23.916Z,20.70
2022-12-25T06:30:50.885Z,19.30
2022-12-25T06:33:17.907Z,20.00
2022-12-25T06:35:45.811Z,21.40
2022-12-25T06:38:12.766Z,21.00
2022-12-25T06:40:39.737Z,23.60
2022-12-25T06:43:06.864Z,25.90
2022-12-25T06:45:35.903Z,25.10
2022-12-25T06:48:02.891Z,25.40
2022-12-25T06:50:29.879Z,24.80
2022-12-25T06:52:56.943Z,24.40
2022-12-25T06:55:23.977Z,24.80
2022-12-25T06:57:50.896Z,26.90
2022-12-25T07:00:18.632Z,26.20
2022-12-25T07:02:49.652Z,26.50
2022-12-25T07:05:17.639Z,27.10
2022-12-25T07:07:44.604Z,27.20
2022-12-25T07:10:13.345Z,27.90
2022-12-25T07:12:40.233Z,27.50
2022-12-25T07:15:09.143Z,28.20
2022-12-25T07:17:37.034Z,26.50
2022-12-25T07:20:04.413Z,25.50
2022-12-25T07:22:32.530Z,25.90
2022-12-25T07:24:59.684Z,27.00
2022-12-25T07:27:27.056Z,27.50
2022-12-25T07:29:54.049Z,26.60
2022-12-25T07:32:21.067Z,26.60
2022-12-25T07:34:48.710Z,25.30
2022-12-25T07:37:15.880Z,26.40
2022-12-25T07:39:42.904Z,26.10
2022-12-25T07:42:09.835Z,26.60
2022-12-25T07:44:38.124Z,26.20
2022-12-25T07:47:05.695Z,27.20
2022-12-25T07:49:32.688Z,25.20
2022-12-25T07:51:59.740Z,25.60
2022-12-25T07:54:26.789Z,25.80
2022-12-25T07:56:54.910Z,25.10
2022-12-25T07:59:22.401Z,25.70
2022-12-25T08:01:52.331Z,24.80
2022-12-25T08:04:19.628Z,25.10
2022-12-25T08:06:46.645Z,24.80
2022-12-25T08:09:14.555Z,24.30
2022-12-25T08:11:45.789Z,24.60
2022-12-25T08:14:12.853Z,22.70
2022-12-25T08:16:41.755Z,22.00
2022-12-25T08:19:08.957Z,23.10
2022-12-25T08:21:35.961Z,23.20
2022-12-25T08:24:03.340Z,22.00
2022-12-25T08:26:30.546Z,23.30
2022-12-25T08:28:57.787Z,21.90
2022-12-25T08:31:26.961Z,20.70
2022-12-25T08:33:57.188Z,21.30
2022-12-25T08:36:24.959Z,21.90
2022-12-25T08:38:55.576Z,21.50
2022-12-25T08:41:25.638Z,21.90
2022-12-25T08:43:52.793Z,22.00
2022-12-25T08:46:20.061Z,22.30
2022-12-25T08:48:48.387Z,20.90
2022-12-25T08:51:17.258Z,22.40
2022-12-25T08:53:44.299Z,21.20
2022-12-25T08:56:11.831Z,23.00
2022-12-25T08:58:39.095Z,22.50
2022-12-25T09:01:06.394Z,22.60
2022-12-25T09:03:34.897Z,22.90
2022-12-25T09:06:05.598Z,22.90
2022-12-25T09:08:32.788Z,23.30
2022-12-25T09:11:02.344Z,23.10
2022-12-25T09:13:29.460Z,21.90
2022-12-25T09:15:56.540Z,22.70
2022-12-25T09:18:24.109Z,21.70
2022-12-25T09:21:00.932Z,20.90
2022-12-25T09:23:29.040Z,21.20
2022-12-25T09:25:56.261Z,21.60
2022-12-25T09:28:24.123Z,20.10
2022-12-25T09:30:53.227Z,21.00
2022-12-25T09:33:20.577Z,20.00
2022-12-25T09:35:53.663Z,20.80
2022-12-25T09:38:21.917Z,19.20
2022-12-25T09:40:49.237Z,19.70
2022-12-25T09:43:21.888Z,19.30
2022-12-25T09:45:49.040Z,19.20
2022-12-25T09:48:17.987Z,18.00
2022-12-25T09:50:51.645Z,19.20
2022-12-25T09:53:23.479Z,18.30
2022-12-25T09:55:55.419Z,19.60
2022-12-25T09:58:22.491Z,18.80
2022-12-25T10:00:54.972Z,20.30
2022-12-25T10:03:35.041Z,20.60
2022-12-25T10:06:17.239Z,19.60
2022-12-25T10:09:13.206Z,20.80
2022-12-25T10:11:54.132Z,21.60
2022-12-25T10:14:32.104Z,20.10
2022-12-25T10:17:13.069Z,18.60
2022-12-25T10:19:48.205Z,19.40
2022-12-25T10:22:20.152Z,19.20
2022-12-25T10:24:52.971Z,18.90
2022-12-25T10:27:25.856Z,19.60
2022-12-25T10:29:55.929Z,19.00
2022-12-25T10:32:23.767Z,18.40
2022-12-25T10:34:51.460Z,16.60
2022-12-25T10:37:19.149Z,16.90
2022-12-25T10:39:47.280Z,17.90
2022-12-25T10:42:40.578Z,17.60
2022-12-25T10:45:10.707Z,18.30
2022-12-25T10:47:43.672Z,15.70
2022-12-25T10:50:26.155Z,17.30
2022-12-25T10:53:04.500Z,17.50
2022-12-25T10:55:31.795Z,16.20
2022-12-25T10:57:59.302Z,17.40
2022-12-25T11:00:29.555Z,17.00
2022-12-25T11:02:57.364Z,17.60
2022-12-25T11:05:30.684Z,18.30
2022-12-25T11:08:00.314Z,18.20
2022-12-25T11:10:31.352Z,21.50
2022-12-25T11:12:59.628Z,17.70
2022-12-25T11:15:41.675Z,17.70
2022-12-25T11:18:21.699Z,17.00
2022-12-25T11:20:53.823Z,17.50
2022-12-25T11:23:23.143Z,17.70
2022-12-25T11:25:59.680Z,18.00
2022-12-25T11:28:27.299Z,18.20
2022-12-25T11:31:00.576Z,19.40
2022-12-25T11:33:32.586Z,16.60
2022-12-25T11:36:04.350Z,17.30
2022-12-25T11:38:31.422Z,16.30
2022-12-25T11:41:03.386Z,17.30
2022-12-25T11:43:37.181Z,17.20
2022-12-25T11:46:13.309Z,16.60
2022-12-25T11:48:46.057Z,16.80
2022-12-25T11:51:15.637Z,17.20
2022-12-25T11:53:50.058Z,17.20
2022-12-25T11:56:19.984Z,16.60
2022-12-25T11:58:50.542Z,17.10
2022-12-25T12:01:30.330Z,17.50
2022-12-25T12:03:59.187Z,17.70
2022-12-25T12:06:33.827Z,18.10
2022-12-25T12:09:13.102Z,18.50
2022-12-25T12:11:47.521Z,17.90
2022-12-25T12:14:31.572Z,17.60
2022-12-25T12:16:58.646Z,18.70
2022-12-25T12:19:30.701Z,19.40
2022-12-25T12:22:01.515Z,25.40
2022-12-25T12:24:34.651Z,24.60
2022-12-25T12:27:07.586Z,20.20
2022-12-25T12:29:40.967Z,21.10
2022-12-25T12:32:26.319Z,18.70
2022-12-25T12:34:53.481Z,20.20
2022-12-25T12:37:26.581Z,21.20
2022-12-25T12:39:56.354Z,21.20
2022-12-25T12:42:27.269Z,21.10
2022-12-25T12:44:55.652Z,20.70
2022-12-25T12:47:39.975Z,20.70
2022-12-25T12:50:09.374Z,20.70
2022-12-25T12:52:41.209Z,20.30
2022-12-25T12:55:13.327Z,21.40
2022-12-25T12:57:41.206Z,21.50
2022-12-25T13:00:16.225Z,20.40
2022-12-25T13:03:06.091Z,20.70
2022-12-25T13:05:41.406Z,20.70
2022-12-25T13:08:21.388Z,21.60
2022-12-25T13:10:51.800Z,21.60
2022-12-25T13:13:24.400Z,22.20
2022-12-25T13:15:53.317Z,22.20
2022-12-25T13:18:21.716Z,22.90
2022-12-25T13:20:55.184Z,22.70
2022-12-25T13:23:30.738Z,23.00
2022-12-25T13:25:59.766Z,21.60
2022-12-25T13:28:31.966Z,21.50
2022-12-25T13:31:08.034Z,21.20
2022-12-25T13:33:35.870Z,22.10
2022-12-25T13:36:03.191Z,22.70
2022-12-25T13:38:31.184Z,22.50
2022-12-25T13:41:17.641Z,22.10
2022-12-25T13:43:47.196Z,21.90
2022-12-25T13:46:17.232Z,23.10
2022-12-25T13:48:44.551Z,22.80
2022-12-25T13:51:17.968Z,23.40
2022-12-25T13:53:45.543Z,24.90
2022-12-25T13:56:17.042Z,25.00
2022-12-25T13:58:44.597Z,25.50
2022-12-25T14:01:17.308Z,25.80
2022-12-25T14:03:47.175Z,27.00
2022-12-25T14:06:21.613Z,26.20
2022-12-25T14:08:49.622Z,27.50
2022-12-25T14:11:20.622Z,26.10
2022-12-25T14:13:49.666Z,26.10
2022-12-25T14:16:19.520Z,26.40
2022-12-25T14:18:55.667Z,25.10
2022-12-25T14:21:30.203Z,27.30
2022-12-25T14:23:57.727Z,27.00
2022-12-25T14:26:27.584Z,27.30
2022-12-25T14:28:58.980Z,26.70
2022-12-25T14:31:29.701Z,26.90
2022-12-25T14:33:59.433Z,28.60
2022-12-25T14:36:27.505Z,29.20
2022-12-25T14:39:01.914Z,28.80
2022-12-25T14:41:38.245Z,28.50
2022-12-25T14:44:22.139Z,30.20
2022-12-25T14:46:50.321Z,30.50
2022-12-25T14:49:27.986Z,29.70
2022-12-25T14:51:56.225Z,30.00
2022-12-25T14:54:26.198Z,31.40
2022-12-25T14:56:56.263Z,31.70
2022-12-25T14:59:26.239Z,28.40
2022-12-25T15:01:57.031Z,29.40
2022-12-25T15:04:25.959Z,28.60
2022-12-25T15:06:58.122Z,29.20
2022-12-25T15:09:25.180Z,28.50
2022-12-25T15:11:53.681Z,28.60
2022-12-25T15:14:21.347Z,28.70
2022-12-25T15:16:50.901Z,28.70
2022-12-25T15:19:25.772Z,27.50
2022-12-25T15:21:53.835Z,30.40
2022-12-25T15:24:21.635Z,29.70
2022-12-25T15:26:49.921Z,29.70
2022-12-25T15:29:23.656Z,28.50
2022-12-25T15:32:05.021Z,30.10
2022-12-25T15:34:32.016Z,28.60
2022-12-25T15:36:59.153Z,28.80
2022-12-25T15:39:26.193Z,30.30
2022-12-25T15:42:10.757Z,28.10
2022-12-25T15:44:37.905Z,28.10
2022-12-25T15:47:04.950Z,27.00
2022-12-25T15:49:32.229Z,27.00
2022-12-25T15:51:59.568Z,27.60
2022-12-25T15:54:26.707Z,28.70
2022-12-25T15:56:55.912Z,27.70
2022-12-25T15:59:23.681Z,27.70
2022-12-25T16:01:53.305Z,26.50
2022-12-25T16:04:22.599Z,27.10
2022-12-25T16:06:50.459Z,27.80
2022-12-25T16:09:20.418Z,30.60
2022-12-25T16:11:51.354Z,28.30
2022-12-25T16:14:19.742Z,28.90
2022-12-25T16:16:47.043Z,27.60
2022-12-25T16:19:14.145Z,28.50
2022-12-25T16:21:44.538Z,28.30
2022-12-25T16:24:12.290Z,28.70
2022-12-25T16:26:39.939Z,29.50
2022-12-25T16:29:08.754Z,28.80
2022-12-25T16:31:36.271Z,30.90
2022-12-25T16:34:04.197Z,29.20
2022-12-25T16:36:31.304Z,29.40
2022-12-25T16:38:58.455Z,29.70
2022-12-25T16:41:25.651Z,29.90
2022-12-25T16:43:52.671Z,30.60
2022-12-25T16:46:23.291Z,29.90
2022-12-25T16:48:51.277Z,30.60
2022-12-25T16:51:20.142Z,31.30
2022-12-25T16:53:47.974Z,29.20
2022-12-25T16:56:17.629Z,30.60
2022-12-25T16:58:46.751Z,31.20
2022-12-25T17:01:16.726Z,30.90
2022-12-25T17:03:44.240Z,31.20
2022-12-25T17:06:19.866Z,31.70
2022-12-25T17:08:47.947Z,32.20
2022-12-25T17:11:16.469Z,31.80
2022-12-25T17:13:46.816Z,33.70
2022-12-25T17:16:22.527Z,32.60
2022-12-25T17:18:54.038Z,34.80
2022-12-25T17:21:21.438Z,30.90
2022-12-25T17:23:48.733Z,32.40
2022-12-25T17:26:15.783Z,32.40
2022-12-25T17:28:43.268Z,32.70
2022-12-25T17:31:12.809Z,33.00
2022-12-25T17:33:41.852Z,32.20
2022-12-25T17:36:12.986Z,35.70
2022-12-25T17:38:40.800Z,33.20
2022-12-25T17:41:10.154Z,32.70
2022-12-25T17:43:40.578Z,34.00
2022-12-25T17:46:10.591Z,33.20
2022-12-25T17:48:38.510Z,32.00
2022-12-25T17:51:07.555Z,33.00
2022-12-25T17:53:37.928Z,33.30
2022-12-25T17:56:05.563Z,33.70
2022-12-25T17:58:33.003Z,33.60
2022-12-25T18:01:05.990Z,33.60
2022-12-25T18:03:33.173Z,34.50
2022-12-25T18:06:02.545Z,34.20
2022-12-25T18:08:35.336Z,33.70
2022-12-25T18:11:08.261Z,34.90
2022-12-25T18:13:35.590Z,34.20
2022-12-25T18:16:07.324Z,35.10
2022-12-25T18:18:34.729Z,38.30
2022-12-25T18:21:02.394Z,35.60
2022-12-25T18:23:29.814Z,36.10
2022-12-25T18:25:57.355Z,37.00
2022-12-25T18:28:24.439Z,36.30
2022-12-25T18:30:51.760Z,37.70
2022-12-25T18:33:18.907Z,36.50
2022-12-25T18:35:47.750Z,37.70
2022-12-25T18:38:15.673Z,37.00
2022-12-25T18:40:45.355Z,37.60
2022-12-25T18:43:13.500Z,35.70
2022-12-25T18:45:41.523Z,36.90
2022-12-25T18:48:09.909Z,38.70
2022-12-25T18:50:38.391Z,34.40
2022-12-25T18:53:06.940Z,33.70
2022-12-25T18:55:35.756Z,36.20
2022-12-25T18:58:02.717Z,33.80
2022-12-25T19:00:30.141Z,32.50
2022-12-25T19:03:00.204Z,31.30
2022-12-25T19:05:28.193Z,30.20
2022-12-25T19:07:55.606Z,30.90
2022-12-25T19:10:23.059Z,29.80
2022-12-25T19:12:50.323Z,29.00
2022-12-25T19:15:17.671Z,30.90
2022-12-25T19:17:45.018Z,28.90
2022-12-25T19:20:13.960Z,32.00
2022-12-25T19:22:41.117Z,31.20
2022-12-25T19:25:10.602Z,30.90
2022-12-25T19:27:37.756Z,32.50
2022-12-25T19:30:06.065Z,30.60
2022-12-25T19:32:33.581Z,32.60
2022-12-25T19:35:04.563Z,33.50
2022-12-25T19:37:32.264Z,32.30
2022-12-25T19:39:59.659Z,33.20
2022-12-25T19:42:26.882Z,32.40
2022-12-25T19:44:56.089Z,33.70
2022-12-25T19:47:24.357Z,32.30
2022-12-25T19:49:53.369Z,31.40
2022-12-25T19:52:21.713Z,29.00
2022-12-25T19:54:51.376Z,29.20
2022-12-25T19:57:18.398Z,28.10
2022-12-25T19:59:54.695Z,26.50
2022-12-25T20:02:22.238Z,27.90
2022-12-25T20:04:49.556Z,27.10
2022-12-25T20:07:16.696Z,27.80
2022-12-25T20:09:43.896Z,27.50
2022-12-25T20:12:14.722Z,27.10
2022-12-25T20:14:41.951Z,27.60
2022-12-25T20:17:15.311Z,27.90
2022-12-25T20:19:43.512Z,28.00
2022-12-25T20:22:10.773Z,27.40
2022-12-25T20:24:37.916Z,27.80
2022-12-25T20:27:05.534Z,28.20
2022-12-25T20:29:32.556Z,26.10
2022-12-25T20:31:59.713Z,25.20
2022-12-25T20:34:27.032Z,25.70
2022-12-25T20:36:54.182Z,26.10
2022-12-25T20:39:21.238Z,27.80
2022-12-25T20:41:48.677Z,27.70
2022-12-25T20:44:15.931Z,28.00
2022-12-25T20:46:43.638Z,28.00
2022-12-25T20:49:10.954Z,28.60
2022-12-25T20:51:38.322Z,27.30
2022-12-25T20:54:09.581Z,26.70
2022-12-25T20:56:37.518Z,25.50
2022-12-25T20:59:04.955Z,28.10
2022-12-25T21:01:33.428Z,26.80
2022-12-25T21:04:01.234Z,26.00
2022-12-25T21:06:28.386Z,27.00
2022-12-25T21:08:55.539Z,29.00
2022-12-25T21:11:23.626Z,27.80
2022-12-25T21:13:51.313Z,26.90
2022-12-25T21:16:22.761Z,27.70
2022-12-25T21:18:50.867Z,25.30
2022-12-25T21:21:18.193Z,25.00
2022-12-25T21:23:45.665Z,25.60
2022-12-25T21:26:16.196Z,25.80
2022-12-25T21:28:43.426Z,25.70
2022-12-25T21:31:11.374Z,25.60
2022-12-25T21:33:54.447Z,26.00
2022-12-25T21:36:23.782Z,25.80
2022-12-25T21:38:55.338Z,26.30
2022-12-25T21:41:22.783Z,25.60
2022-12-25T21:43:50.242Z,26.90
2022-12-25T21:46:18.359Z,24.60
2022-12-25T21:48:46.179Z,24.90
2022-12-25T21:51:35.550Z,25.20
2022-12-25T21:54:04.031Z,26.20
2022-12-25T21:56:36.029Z,24.20
2022-12-25T21:59:07.653Z,24.00
2022-12-25T22:01:35.558Z,24.00
2022-12-25T22:04:07.075Z,25.50
2022-12-25T22:06:52.171Z,25.30
2022-12-25T22:09:19.509Z,25.30
2022-12-25T22:12:04.514Z,25.50
2022-12-25T22:14:51.839Z,25.50
2022-12-25T22:17:39.958Z,26.10
2022-12-25T22:20:09.588Z,26.00
2022-12-25T22:22:36.929Z,25.90
2022-12-25T22:25:06.198Z,25.90
2022-12-25T22:27:36.009Z,26.40
2022-12-25T22:30:03.485Z,25.50
2022-12-25T22:32:30.843Z,24.30
2022-12-25T22:34:58.432Z,26.30
2022-12-25T22:37:25.532Z,27.50
2022-12-25T22:39:53.333Z,24.70
2022-12-25T22:42:20.687Z,25.40
2022-12-25T22:44:48.265Z,25.50
2022-12-25T22:47:15.580Z,26.80
2022-12-25T22:49:42.670Z,26.50
2022-12-25T22:52:10.314Z,25.80
2022-12-25T22:54:38.185Z,25.80
2022-12-25T22:57:05.697Z,24.00
2022-12-25T22:59:33.971Z,22.90
2022-12-25T23:02:01.632Z,23.40
2022-12-25T23:04:29.498Z,24.50
2022-12-25T23:06:57.061Z,23.20
2022-12-25T23:09:27.906Z,21.80
2022-12-25T23:11:57.611Z,21.10
2022-12-25T23:14:40.347Z,22.50
2022-12-25T23:17:30.016Z,21.60
2022-12-25T23:20:17.042Z,22.90
2022-12-25T23:23:02.710Z,22.60
2022-12-25T23:25:47.284Z,21.50
2022-12-25T23:28:14.426Z,21.90
2022-12-25T23:30:42.079Z,23.50
2022-12-25T23:33:09.322Z,23.50
2022-12-25T23:35:39.038Z,22.90
2022-12-25T23:38:06.187Z,22.80
2022-12-25T23:40:33.175Z,22.40
2022-12-25T23:43:00.128Z,22.60
2022-12-25T23:45:27.341Z,21.60
2022-12-25T23:47:55.817Z,23.30
2022-12-25T23:50:24.084Z,23.20
2022-12-25T23:52:51.137Z,23.20
2022-12-25T23:55:18.298Z,23.90
2022-12-25T23:57:45.435Z,23.50
